Time;durP1;ratioP1;P1;durP2;ratioP2;P2;SDS_P1;SDS_P2;PMS_P1;PMS_P2;Temp;Humidity;BMP_temperature;BMP_pressure;BME280_temperature;BME280_humidity;BME280_pressure;Samples;Min_cycle;Max_cycle;Signal;HPM_P1;HPM_P2
2023/08/14 00:00:52;;;;;;;4.18;3.85;;;;;;;-144.30;46.22;84247.59;5112542;28;20198;-50
2023/08/14 00:14:21;;;;;;;;;;;;;;;;;;;;;
2023/08/14 00:27:25;;;;;;;7.13;3.67;;;;;;;-144.30;45.44;84269.47;5112076;28;20637;-51
2023/08/14 01:00:37;;;;;;;6.50;5.15;;;;;;;-144.30;49.97;84442.34;5104049;28;20600;-51
2023/08/14 01:03:36;;;;;;;7.60;5.45;;;;;;;-144.30;50.67;84396.66;5103198;28;20290;-50
2023/08/14 01:30:05;;;;;;;8.20;7.32;;;;;;;-144.30;49.83;84470.19;5065829;28;20219;-51
2023/08/14 02:00:07;;;;;;;5.82;5.25;;;;;;;-144.30;52.16;84517.88;5065273;28;20206;-55
2023/08/14 02:05:48;;;;;;;7.53;5.80;;;;;;;-144.30;52.67;84533.78;5065349;28;20207;-55
2023/08/14 02:38:58;;;;;;;6.57;5.57;;;;;;;-144.30;52.81;84575.50;5107950;28;20222;-55
2023/08/14 02:45:07;;;;;;;11.18;8.93;;;;;;;-144.30;53.31;84563.59;5109120;28;20668;-55
2023/08/14 02:55:13;;;;;;;6.22;5.68;;;;;;;-144.30;52.87;84557.63;4144660;27;28711352;-55
2023/08/14 03:13:58;;;;;;;6.60;5.72;;;;;;;-144.30;53.30;84565.56;5135567;27;20266;-56
2023/08/14 03:40:31;;;;;;;8.50;6.90;;;;;;;-144.30;54.71;84633.16;5143246;27;20240;-55
2023/08/14 03:43:10;;;;;;;8.20;6.47;;;;;;;-144.30;54.62;84651.03;5142802;27;20308;-54
2023/08/14 03:46:02;;;;;;;8.25;6.50;;;;;;;-144.30;54.72;84623.22;5147466;27;20702;-51
2023/08/14 03:48:40;;;;;;;8.93;6.53;;;;;;;-144.30;54.85;84621.22;5137678;27;20208;-50
2023/08/14 03:51:22;;;;;;;7.32;6.50;;;;;;;-144.30;54.83;84641.09;5134217;27;20292;-51
2023/08/14 03:54:02;;;;;;;9.77;6.28;;;;;;;-144.30;54.94;84641.09;5144527;27;20209;-51
2023/08/14 03:57:08;;;;;;;7.45;6.53;;;;;;;-144.30;54.93;84613.28;5146543;27;20202;-49
2023/08/14 03:59:49;;;;;;;10.25;6.40;;;;;;;-144.30;55.06;84619.22;5146900;27;20193;-51
2023/08/14 04:02:23;;;;;;;6.80;6.10;;;;;;;-144.30;54.81;84613.28;5146998;27;20238;-55
2023/08/14 04:07:53;;;;;;;7.13;5.28;;;;;;;-144.30;54.02;84557.63;5132050;27;20209;-56
2023/08/14 04:10:45;;;;;;;6.00;5.57;;;;;;;-144.30;53.08;84422.47;5131673;27;20197;-51
2023/08/14 04:13:46;;;;;;;7.68;5.90;;;;;;;-144.30;51.02;84432.41;5133049;27;20200;-54
2023/08/14 04:16:41;;;;;;;6.95;5.78;;;;;;;-144.30;49.49;84297.28;5133263;27;20189;-55
2023/08/14 04:19:18;;;;;;;5.85;5.22;;;;;;;-144.30;47.48;84154.19;5131727;27;20202;-56
2023/08/14 04:21:51;;;;;;;7.80;6.10;;;;;;;-144.30;46.00;84082.66;5131201;27;20705;-54
2023/08/14 04:24:33;;;;;;;7.18;5.07;;;;;;;-144.30;44.68;84001.19;5131881;27;20229;-50
2023/08/14 04:30:21;;;;;;;6.50;5.88;;;;;;;-144.30;42.10;83794.53;5128911;27;20218;-56
2023/08/14 04:33:02;;;;;;;11.98;5.88;;;;;;;-144.30;41.50;83711.06;5132406;27;21236;-55
2023/08/14 04:35:39;;;;;;;8.23;5.93;;;;;;;-144.30;39.87;83575.97;5108254;27;20643;-56
2023/08/14 04:38:32;;;;;;;7.45;5.68;;;;;;;-144.30;38.42;83413.03;5130289;27;20292;-56
2023/08/14 04:41:02;;;;;;;6.57;6.15;;;;;;;-144.30;37.51;83281.91;5127356;27;20209;-55
2023/08/14 04:43:31;;;;;;;7.63;6.10;;;;;;;-144.30;36.48;83206.41;5114503;27;20222;-55
2023/08/14 04:46:14;;;;;;;7.40;6.07;;;;;;;-144.30;35.87;83122.97;5115545;27;20201;-56
2023/08/14 04:48:50;;;;;;;7.07;6.57;;;;;;;-144.30;34.75;82972.00;5131627;27;20198;-56
2023/08/14 04:51:30;;;;;;;7.45;6.20;;;;;;;-144.30;34.23;82912.41;5131862;27;20198;-51
2023/08/14 04:54:06;;;;;;;8.55;5.80;;;;;;;-144.30;33.50;82801.16;5131519;27;20278;-57
2023/08/14 04:57:00;;;;;;;6.40;5.20;;;;;;;-144.30;32.71;82697.88;5121561;27;20194;-55
2023/08/14 04:59:41;;;;;;;6.45;5.78;;;;;;;-144.30;32.50;82705.81;5128524;27;20198;-51
2023/08/14 05:05:39;;;;;;;12.43;5.15;;;;;;;-144.30;31.77;82523.06;5130914;27;20678;-56
2023/08/14 05:08:22;;;;;;;6.60;4.97;;;;;;;-144.30;31.59;82521.09;5131829;27;20276;-51
2023/08/14 05:10:59;;;;;;;5.40;4.88;;;;;;;-144.30;30.77;82350.28;5131952;27;20225;-51
2023/08/14 05:13:35;;;;;;;5.90;4.80;;;;;;;-144.30;30.45;82219.19;5130820;27;20193;-51
2023/08/14 05:16:21;;;;;;;7.82;4.53;;;;;;;-144.30;29.55;82024.56;5130760;27;20229;-56
2023/08/14 05:19:15;;;;;;;4.95;4.20;;;;;;;-144.30;29.03;81974.91;5120002;27;20570;-56
2023/08/14 05:25:12;;;;;;;6.80;4.60;;;;;;;-144.30;28.94;81931.22;5130202;27;20619;-56
2023/08/14 05:28:11;;;;;;;6.13;4.28;;;;;;;-144.30;29.72;82086.13;5131557;27;20720;-56
2023/08/14 05:31:00;;;;;;;11.23;4.60;;;;;;;-144.30;30.03;82090.09;5131423;27;20250;-51
2023/08/14 05:33:39;;;;;;;7.32;4.18;;;;;;;-144.30;29.75;82036.47;5128537;27;20198;-52
2023/08/14 05:36:24;;;;;;;6.97;4.68;;;;;;;-144.30;29.28;81893.47;5128248;27;20225;-56
2023/08/14 05:39:03;;;;;;;5.53;4.22;;;;;;;-144.30;28.83;81659.16;5128621;27;20273;-56
2023/08/14 05:41:50;;;;;;;7.22;4.80;;;;;;;-144.30;28.49;81597.59;5129003;27;20201;-51
2023/08/14 05:47:20;;;;;;;9.95;5.07;;;;;;;-144.30;28.66;81673.03;5128886;27;20254;-52
2023/08/14 05:50:27;;;;;;;7.97;5.22;;;;;;;-144.30;28.90;81772.34;5128793;27;20193;-52
2023/08/14 05:53:30;;;;;;;5.38;4.40;;;;;;;-144.30;29.02;81732.63;5128515;27;20225;-52
2023/08/14 05:56:49;;;;;;;10.18;4.75;;;;;;;-144.30;29.12;81786.25;5129119;27;20599;-56
2023/08/14 06:10:11;;;;;;;11.85;4.43;;;;;;;-144.30;27.64;81541.97;5127205;27;20197;-52
2023/08/14 06:35:50;;;;;;;7.28;5.07;;;;;;;-144.30;30.66;82109.94;5146512;27;20279;-51
2023/08/14 07:06:56;;;;;;;8.57;4.32;;;;;;;-144.30;29.36;81839.84;5147107;27;20196;-50
2023/08/14 07:09:47;;;;;;;4.63;4.30;;;;;;;-144.30;30.11;81970.94;5147147;27;20712;-55
2023/08/14 07:12:51;;;;;;;6.55;4.32;;;;;;;-144.30;30.92;82135.75;5147176;27;20233;-55
2023/08/14 07:16:10;;;;;;;12.63;4.80;;;;;;;-144.30;31.33;82229.09;5146687;27;20284;-50
2023/08/14 07:18:44;;;;;;;5.05;4.18;;;;;;;-144.30;31.15;82227.13;5146705;27;20276;-50
2023/08/14 07:21:35;;;;;;;13.55;4.45;;;;;;;-144.30;31.56;82272.81;5146133;27;20672;-54
2023/08/14 07:24:41;;;;;;;5.05;4.15;;;;;;;-144.30;31.13;82262.88;5146898;27;20196;-55
2023/08/14 07:27:19;;;;;;;5.00;4.47;;;;;;;-144.30;31.30;82308.56;5141418;27;20205;-54
2023/08/14 07:30:00;;;;;;;5.90;3.80;;;;;;;-144.30;31.71;82332.38;5146222;27;20215;-51
2023/08/14 07:32:41;;;;;;;5.93;3.67;;;;;;;-144.30;30.62;82094.06;5130245;27;20722;-52
2023/08/14 07:35:26;;;;;;;7.57;3.88;;;;;;;-144.30;29.17;81831.91;5132682;27;20229;-50
2023/08/14 07:38:07;;;;;;;3.85;3.45;;;;;;;-144.30;28.13;81728.66;5131364;27;20195;-51
2023/08/14 07:40:56;;;;;;;3.65;3.40;;;;;;;-144.30;27.45;81432.78;5132336;27;20612;-51
2023/08/14 07:49:52;;;;;;;3.47;3.28;;;;;;;-144.30;26.09;81021.75;5131688;27;20577;-51
2023/08/14 07:52:24;;;;;;;3.58;3.28;;;;;;;-144.30;25.99;81041.63;5129893;27;20673;-50
2023/08/14 07:54:53;;;;;;;13.68;3.90;;;;;;;-144.30;25.98;80964.19;5130870;27;20224;-51
2023/08/14 07:57:28;;;;;;;3.75;3.55;;;;;;;-144.30;26.12;81182.59;5132383;27;20205;-50
2023/08/14 08:00:07;;;;;;;6.22;3.47;;;;;;;-144.30;26.80;81403.00;5132102;27;20228;-51
2023/08/14 08:02:53;;;;;;;5.18;4.10;;;;;;;-144.30;27.25;81609.50;5120768;27;20228;-55
2023/08/14 08:05:33;;;;;;;4.25;3.80;;;;;;;-144.30;27.57;81625.38;5131723;27;20193;-50
2023/08/14 08:08:23;;;;;;;6.65;4.13;;;;;;;-144.30;27.94;81609.50;5131886;27;20530;-54
2023/08/14 08:10:56;;;;;;;4.18;3.72;;;;;;;-144.30;28.07;81746.53;5126391;27;20515;-51
2023/08/14 08:13:42;;;;;;;25.65;6.05;;;;;;;-144.30;27.60;81569.78;5130753;27;20229;-55
2023/08/14 08:19:27;;;;;;;8.88;4.07;;;;;;;-144.30;27.45;81643.25;5121979;27;20201;-51
2023/08/14 08:38:46;;;;;;;3.53;3.33;;;;;;;-144.30;25.63;81073.38;5129604;27;20194;-51
2023/08/14 08:41:40;;;;;;;3.78;3.47;;;;;;;-144.30;25.75;81164.72;5130982;27;20217;-54
2023/08/14 08:44:38;;;;;;;6.95;3.80;;;;;;;-144.30;26.20;81363.28;5127176;27;20300;-54
2023/08/14 08:47:26;;;;;;;4.03;3.70;;;;;;;-144.30;27.14;81587.66;5123959;27;20198;-55
2023/08/14 08:57:25;;;;;;;3.78;3.58;;;;;;;-144.30;28.38;82274.78;5142422;27;20250;-55
2023/08/14 09:00:08;;;;;;;4.07;3.78;;;;;;;-144.30;28.83;82358.22;5148159;27;20204;-55
2023/08/14 09:02:56;;;;;;;4.53;4.15;;;;;;;-144.30;29.65;82538.97;5147612;27;20639;-52
2023/08/14 09:05:34;;;;;;;4.25;3.95;;;;;;;-144.30;30.58;82592.59;5143171;27;20201;-51
2023/08/14 09:08:08;;;;;;;4.63;3.90;;;;;;;-144.30;31.00;82731.63;5146590;27;20587;-55
2023/08/14 09:11:05;;;;;;;3.70;3.50;;;;;;;-144.30;31.44;82785.28;5147905;27;20197;-51
2023/08/14 09:17:21;;;;;;;4.35;4.05;;;;;;;-144.30;32.24;82954.13;5144851;27;20205;-51
2023/08/14 09:20:03;;;;;;;3.47;3.25;;;;;;;-144.30;32.20;83166.69;5147557;27;20254;-49
2023/08/14 09:29:23;;;;;;;8.35;4.15;;;;;;;-144.30;33.36;83069.34;5142703;27;20224;-55
2023/08/14 09:32:04;;;;;;;6.63;4.38;;;;;;;-144.30;33.62;83067.34;5144925;27;20793;-52
2023/08/14 09:38:25;;;;;;;9.43;4.28;;;;;;;-144.30;33.23;83005.78;5146728;27;20190;-51
2023/08/14 09:44:59;;;;;;;;;;;;;;;;;;;;;
2023/08/14 10:00:28;;;;;;;;;;;;;;;;;;;;;
2023/08/14 10:03:26;;;;;;;4.15;3.85;;;;;;;-144.30;30.23;82362.19;5113225;27;20211;-51
2023/08/14 11:16:18;;;;;;;4.00;3.70;;;;;;;-144.30;31.26;82662.09;5142596;27;20967;-51
2023/08/14 11:19:14;;;;;;;3.65;3.45;;;;;;;-144.30;31.23;82622.38;5146661;27;20196;-49
2023/08/14 11:22:07;;;;;;;3.88;3.58;;;;;;;-144.30;31.50;82610.47;5145760;27;20280;-52
2023/08/14 11:25:09;;;;;;;5.63;3.88;;;;;;;-144.30;31.80;82628.34;5144818;27;20657;-51
2023/08/14 11:28:21;;;;;;;3.78;3.58;;;;;;;-144.30;31.64;82630.34;5145243;27;20185;-50
2023/08/14 11:31:14;;;;;;;5.68;5.03;;;;;;;-144.30;31.86;82614.44;5146507;27;20220;-55
2023/08/14 11:33:54;;;;;;;6.22;5.80;;;;;;;-144.30;32.15;82628.34;5144660;27;20236;-57
2023/08/14 11:36:46;;;;;;;4.97;4.20;;;;;;;-144.30;31.93;82580.66;5145093;27;20193;-55
2023/08/14 11:39:22;;;;;;;4.40;4.00;;;;;;;-144.30;31.77;82610.47;5146818;27;20200;-55
2023/08/14 11:42:11;;;;;;;5.88;4.40;;;;;;;-144.30;32.06;82626.34;5147104;27;20725;-55
2023/08/14 11:48:20;;;;;;;5.78;4.13;;;;;;;-144.30;31.95;82598.56;5143243;27;20288;-51
2023/08/14 11:51:09;;;;;;;4.22;3.92;;;;;;;-144.30;32.38;82658.13;5145089;27;20682;-55
2023/08/14 11:53:40;;;;;;;4.30;3.90;;;;;;;-144.30;32.44;82640.25;5143949;27;20194;-55
2023/08/14 11:56:31;;;;;;;4.18;3.75;;;;;;;-144.30;32.85;82681.97;5146126;27;20193;-55
2023/08/14 11:58:59;;;;;;;3.97;3.30;;;;;;;-144.30;33.21;82741.56;5144207;27;20193;-50
2023/08/14 12:01:34;;;;;;;4.03;3.83;;;;;;;-144.30;33.04;82721.69;5146133;27;20193;-51
2023/08/14 12:04:13;;;;;;;3.97;3.63;;;;;;;-144.30;33.06;82674.03;5130511;27;20189;-52
2023/08/14 12:06:57;;;;;;;3.90;3.70;;;;;;;-144.30;32.85;82674.03;5130420;27;20705;-52
2023/08/14 12:09:33;;;;;;;4.93;3.90;;;;;;;-144.30;32.97;82678.00;5130246;27;20197;-52
2023/08/14 12:12:18;;;;;;;4.20;3.67;;;;;;;-144.30;33.22;82687.94;5130706;27;20709;-56
2023/08/14 12:14:52;;;;;;;4.28;3.97;;;;;;;-144.30;33.16;82687.94;5130671;27;20221;-49
2023/08/14 12:17:38;;;;;;;4.30;3.80;;;;;;;-144.30;33.16;82626.34;5130258;27;20293;-51
2023/08/14 12:20:13;;;;;;;30.83;6.38;;;;;;;-144.30;33.38;82685.94;5128718;27;20722;-56
2023/08/14 12:22:50;;;;;;;10.30;4.38;;;;;;;-144.30;33.26;82658.13;5132682;27;20266;-51
2023/08/14 12:25:26;;;;;;;12.45;6.18;;;;;;;-144.30;33.50;82640.25;5132183;27;20733;-51
2023/08/14 12:28:04;;;;;;;5.68;4.63;;;;;;;-144.30;33.29;82523.06;5119553;27;20691;-56
2023/08/14 12:30:51;;;;;;;4.88;4.05;;;;;;;-144.30;33.34;82616.44;5132290;27;20572;-56
2023/08/14 12:33:19;;;;;;;4.30;3.90;;;;;;;-144.30;33.21;82558.81;5129475;27;20212;-51
2023/08/14 12:35:52;;;;;;;9.90;4.80;;;;;;;-144.30;33.20;82517.09;5131447;27;20201;-53
2023/08/14 12:38:35;;;;;;;4.20;3.90;;;;;;;-144.30;33.25;82554.84;5129559;27;20409;-51
2023/08/14 12:41:11;;;;;;;46.28;9.15;;;;;;;-144.30;33.28;82566.78;5130818;27;20246;-55
2023/08/14 12:43:45;;;;;;;7.68;4.18;;;;;;;-144.30;33.24;82558.81;5128687;27;20201;-50
2023/08/14 12:46:12;;;;;;;15.23;4.93;;;;;;;-144.30;33.49;82527.03;5132028;27;20197;-56
2023/08/14 12:48:52;;;;;;;6.03;4.22;;;;;;;-144.30;33.90;82578.69;5129654;27;20201;-56
2023/08/14 12:54:30;;;;;;;6.07;4.60;;;;;;;-144.30;33.91;82640.25;5116532;27;20197;-55
2023/08/14 12:57:14;;;;;;;24.80;5.13;;;;;;;-144.30;33.62;82652.19;5132543;27;20194;-52
2023/08/14 13:00:01;;;;;;;6.50;4.88;;;;;;;-144.30;33.86;82634.31;5130835;27;20194;-51
2023/08/14 13:02:37;;;;;;;3.88;3.67;;;;;;;-144.30;33.87;82636.28;5130823;27;20204;-55
2023/08/14 13:05:10;;;;;;;14.70;4.60;;;;;;;-144.30;34.04;82634.31;5129683;27;20223;-55
2023/08/14 13:07:57;;;;;;;4.75;4.35;;;;;;;-144.30;34.11;82618.41;5131753;27;20673;-56
2023/08/14 13:10:43;;;;;;;4.72;4.22;;;;;;;-144.30;34.25;82670.06;5131840;27;20243;-56
2023/08/14 13:13:26;;;;;;;4.18;3.90;;;;;;;-144.30;33.82;82689.91;5131893;27;20233;-56
2023/08/14 13:16:13;;;;;;;4.72;4.30;;;;;;;-144.30;34.43;82739.56;5129008;27;20201;-55
2023/08/14 13:18:54;;;;;;;6.55;4.80;;;;;;;-144.30;34.22;82723.69;5129355;27;20302;-56
2023/08/14 13:21:27;;;;;;;5.03;4.22;;;;;;;-144.30;34.28;82695.88;5129275;27;20183;-56
2023/08/14 13:23:59;;;;;;;6.88;4.03;;;;;;;-144.30;34.50;82654.16;5131056;27;20197;-52
2023/08/14 13:26:37;;;;;;;4.65;4.28;;;;;;;-144.30;34.36;82683.97;5130690;27;20198;-55
2023/08/14 13:29:11;;;;;;;19.27;4.95;;;;;;;-144.30;34.40;82666.09;5126597;27;20202;-56
2023/08/14 13:31:41;;;;;;;6.45;4.03;;;;;;;-144.30;34.24;82616.44;5130450;27;20623;-52
2023/08/14 13:34:12;;;;;;;4.68;4.28;;;;;;;-144.30;34.56;82666.09;5130151;27;20228;-55
2023/08/14 13:36:43;;;;;;;4.75;4.25;;;;;;;-144.30;34.83;82672.03;5129783;27;20213;-51
2023/08/14 13:39:22;;;;;;;4.38;4.07;;;;;;;-144.30;35.01;82703.81;5130737;27;20697;-51
2023/08/14 13:41:59;;;;;;;4.47;4.10;;;;;;;-144.30;34.98;82689.91;5127462;27;20189;-50
2023/08/14 13:44:32;;;;;;;7.65;4.25;;;;;;;-144.30;34.90;82658.13;5129079;27;20201;-51
2023/08/14 13:47:12;;;;;;;5.97;4.00;;;;;;;-144.30;34.78;82640.25;5129606;27;20206;-55
2023/08/14 13:52:50;;;;;;;8.98;4.85;;;;;;;-144.30;34.75;82642.25;5126531;27;20230;-55
2023/08/14 13:55:25;;;;;;;5.60;4.30;;;;;;;-144.30;34.56;82648.22;5113331;27;20449;-50
2023/08/14 13:58:00;;;;;;;7.75;4.40;;;;;;;-144.30;34.79;82697.88;5129102;27;20207;-52
2023/08/14 14:00:30;;;;;;;10.98;4.50;;;;;;;-144.30;34.87;82650.19;5121269;27;20205;-52
2023/08/14 14:02:57;;;;;;;6.53;4.05;;;;;;;-144.30;35.07;82596.56;5129810;27;20280;-52
2023/08/14 14:05:25;;;;;;;6.53;4.78;;;;;;;-144.30;35.40;82650.19;5125596;27;20198;-56
2023/08/14 14:07:52;;;;;;;7.55;4.80;;;;;;;-144.30;35.14;82652.19;5129557;27;20217;-52
2023/08/14 14:10:19;;;;;;;9.02;5.30;;;;;;;-144.30;35.13;82674.03;5128763;27;20221;-49
2023/08/14 14:12:46;;;;;;;208.60;24.60;;;;;;;-144.30;35.33;82646.22;5128841;27;20335;-55
2023/08/14 14:15:15;;;;;;;81.32;12.20;;;;;;;-144.30;35.03;82622.38;5128666;27;20206;-55
2023/08/14 14:17:43;;;;;;;19.52;6.68;;;;;;;-144.30;34.84;82602.53;5129058;27;20202;-55
2023/08/14 14:20:11;;;;;;;9.07;5.60;;;;;;;-144.30;34.86;82630.34;5128066;27;20202;-55
2023/08/14 14:22:38;;;;;;;14.32;5.72;;;;;;;-144.30;34.74;82604.50;5129667;27;20706;-55
2023/08/14 14:25:06;;;;;;;8.18;5.35;;;;;;;-144.30;34.79;82630.34;5129056;27;20229;-55
2023/08/14 14:27:33;;;;;;;12.30;6.22;;;;;;;-144.30;35.04;82654.16;5130305;27;20189;-50
2023/08/14 14:30:01;;;;;;;8.85;6.38;;;;;;;-144.30;35.33;82640.25;5130419;27;20194;-50
2023/08/14 14:32:29;;;;;;;4.78;4.38;;;;;;;-144.30;35.02;82606.50;5130237;27;20689;-50
2023/08/14 14:34:57;;;;;;;10.93;7.30;;;;;;;-144.30;35.37;82656.16;5129563;27;20645;-51
2023/08/14 14:37:24;;;;;;;8.48;5.72;;;;;;;-144.30;35.38;82664.09;5109723;28;20234;-51
2023/08/14 14:39:52;;;;;;;16.27;5.53;;;;;;;-144.30;35.61;82646.22;5109745;28;20199;-50
2023/08/14 14:45:15;;;;;;;14.82;7.10;;;;;;;-144.30;35.89;82678.00;5129605;27;20198;-56
2023/08/14 14:48:13;;;;;;;14.63;6.07;;;;;;;-144.30;35.70;82670.06;5129932;27;20186;-51
2023/08/14 14:51:09;;;;;;;12.23;9.85;;;;;;;-144.30;35.72;82399.91;5128720;28;20189;-56
2023/08/14 14:53:58;;;;;;;18.30;8.30;;;;;;;-144.30;35.87;82676.03;5086023;28;20225;-56
2023/08/14 14:56:48;;;;;;;10.90;9.30;;;;;;;-144.30;35.61;82658.13;5086101;28;20203;-52
2023/08/14 14:59:45;;;;;;;12.38;5.78;;;;;;;-144.30;35.97;82695.88;5080650;28;20231;-53
2023/08/14 15:02:47;;;;;;;7.38;6.68;;;;;;;-144.30;36.00;82656.16;5088679;28;20516;-52
2023/08/14 15:05:43;;;;;;;10.43;8.07;;;;;;;-144.30;35.94;82699.84;5088975;28;20194;-56
2023/08/14 15:08:48;;;;;;;8.25;6.38;;;;;;;-144.30;35.93;82670.06;5088551;28;20203;-57
2023/08/14 15:17:41;;;;;;;9.30;6.05;;;;;;;-144.30;36.63;82757.47;5088284;28;20203;-52
2023/08/14 15:20:49;;;;;;;7.57;5.93;;;;;;;-144.30;36.73;82801.16;5087587;28;20199;-57
2023/08/14 15:23:48;;;;;;;7.07;5.13;;;;;;;-144.30;36.56;82777.31;5089060;28;20569;-51
2023/08/14 15:26:57;;;;;;;17.42;10.35;;;;;;;-144.30;36.97;82791.22;5086213;28;20597;-57
2023/08/14 15:30:01;;;;;;;8.30;7.55;;;;;;;-144.30;36.70;82799.19;5088228;28;20234;-56
2023/08/14 15:32:56;;;;;;;7.70;6.80;;;;;;;-144.30;36.90;82819.03;5087989;28;20258;-53
2023/08/14 15:35:57;;;;;;;7.13;6.25;;;;;;;-144.30;36.99;82809.09;5088752;28;20195;-52
2023/08/14 15:39:01;;;;;;;12.50;10.38;;;;;;;-144.30;36.71;82783.28;5089830;28;20690;-57
2023/08/14 15:42:01;;;;;;;6.22;5.60;;;;;;;-144.30;36.64;82805.13;5089848;28;20286;-56
2023/08/14 15:44:57;;;;;;;7.38;6.57;;;;;;;-144.30;36.64;82836.91;5091235;28;20711;-57
2023/08/14 15:48:00;;;;;;;6.30;5.70;;;;;;;-144.30;36.80;82791.22;5091278;28;20286;-56
2023/08/14 15:50:35;;;;;;;5.07;4.65;;;;;;;-144.30;36.87;82832.94;5090019;28;20191;-57
2023/08/14 15:53:10;;;;;;;5.20;4.65;;;;;;;-144.30;36.91;82793.22;5127750;27;20267;-56
2023/08/14 15:55:55;;;;;;;7.28;6.28;;;;;;;-144.30;37.16;82813.06;5132404;27;20268;-56
2023/08/14 16:01:37;;;;;;;8.30;4.47;;;;;;;-144.30;37.39;82797.19;5128311;27;20214;-52
2023/08/14 16:04:28;;;;;;;6.38;4.93;;;;;;;-144.30;37.47;82858.78;5130241;27;20224;-55
2023/08/14 16:07:13;;;;;;;7.72;6.80;;;;;;;-144.30;37.62;82880.63;5129069;27;20252;-56
2023/08/14 16:10:02;;;;;;;8.60;5.13;;;;;;;-144.30;37.61;82781.28;5133228;27;20657;-52
2023/08/14 16:15:57;;;;;;;5.32;4.72;;;;;;;-144.30;37.66;82884.59;5130415;27;20343;-51
2023/08/14 16:18:55;;;;;;;5.28;4.68;;;;;;;-144.30;37.71;82886.56;5131925;27;20190;-54
2023/08/14 16:21:26;;;;;;;6.45;4.70;;;;;;;-144.30;37.81;82946.16;5131808;27;20216;-52
2023/08/14 16:24:15;;;;;;;4.97;4.60;;;;;;;-144.30;38.06;82938.22;5112131;28;20635;-56
2023/08/14 16:26:54;;;;;;;5.30;4.90;;;;;;;-144.30;38.11;82956.09;5108144;28;20198;-56
2023/08/14 16:29:24;;;;;;;8.98;4.75;;;;;;;-144.30;38.15;82932.28;5118036;27;20729;-53
2023/08/14 16:32:05;;;;;;;5.20;4.55;;;;;;;-144.30;37.99;82960.06;5127968;27;20204;-57
2023/08/14 16:35:08;;;;;;;5.65;5.22;;;;;;;-144.30;38.27;82950.16;5132497;27;20269;-53
2023/08/14 16:37:56;;;;;;;7.32;5.93;;;;;;;-144.30;38.08;82977.97;5132244;27;20201;-57
2023/08/14 16:40:58;;;;;;;6.13;5.63;;;;;;;-144.30;38.32;83258.06;5131100;27;20588;-56
2023/08/14 16:43:57;;;;;;;9.02;6.03;;;;;;;-144.30;38.15;83007.75;5132516;27;20205;-56
2023/08/14 16:46:25;;;;;;;7.80;6.32;;;;;;;-144.30;38.49;83037.56;5130048;27;20228;-57
2023/08/14 16:49:09;;;;;;;5.68;5.28;;;;;;;-144.30;38.50;83049.47;5130072;27;20197;-51
2023/08/14 16:51:49;;;;;;;6.13;5.72;;;;;;;-144.30;38.42;83007.75;5129164;27;20328;-56
2023/08/14 16:54:21;;;;;;;6.70;4.68;;;;;;;-144.30;38.32;83049.47;5128323;27;20214;-56
2023/08/14 16:56:54;;;;;;;9.48;5.03;;;;;;;-144.30;38.40;83053.44;5130154;27;20201;-56
2023/08/14 16:59:57;;;;;;;5.95;5.45;;;;;;;-144.30;38.66;83063.38;5132090;27;20279;-56
2023/08/14 17:02:46;;;;;;;64.72;16.27;;;;;;;-144.30;39.00;83083.25;5132120;27;20225;-52
2023/08/14 17:05:20;;;;;;;7.78;5.05;;;;;;;-144.30;38.33;83059.41;5131671;27;20186;-52
2023/08/14 17:07:56;;;;;;;10.65;5.28;;;;;;;-144.30;38.48;83093.19;5131470;27;20209;-55
2023/08/14 17:10:33;;;;;;;16.30;8.95;;;;;;;-144.30;39.54;83039.53;5131525;27;20251;-51
2023/08/14 17:13:12;;;;;;;7.25;6.20;;;;;;;-144.30;39.01;83027.63;5130084;27;20262;-51
2023/08/14 17:16:04;;;;;;;6.15;5.53;;;;;;;-144.30;39.03;83115.03;5131560;27;20363;-51
2023/08/14 17:18:51;;;;;;;6.80;4.85;;;;;;;-144.30;39.37;83130.94;5129784;27;20591;-56
2023/08/14 17:21:18;;;;;;;6.43;5.72;;;;;;;-144.30;39.47;83103.13;5131146;27;20233;-51
2023/08/14 17:23:59;;;;;;;10.20;5.18;;;;;;;-144.30;39.58;83095.16;5131302;27;20189;-55
2023/08/14 17:26:37;;;;;;;6.20;5.78;;;;;;;-144.30;39.68;83136.88;5129505;27;20198;-55
2023/08/14 17:29:17;;;;;;;6.50;5.65;;;;;;;-144.30;39.75;83122.97;5131524;27;20607;-56
2023/08/14 17:32:07;;;;;;;7.07;6.38;;;;;;;-144.30;38.69;83148.81;5130147;27;20229;-56
2023/08/14 17:35:03;;;;;;;9.43;6.05;;;;;;;-144.30;37.47;83095.16;5130762;27;20193;-54
2023/08/14 17:37:36;;;;;;;7.90;5.65;;;;;;;-144.30;37.99;83117.03;5131483;27;20588;-56
2023/08/14 17:40:23;;;;;;;6.85;5.80;;;;;;;-144.30;38.33;83146.81;5130358;27;20198;-55
2023/08/14 17:43:15;;;;;;;6.95;5.53;;;;;;;-144.30;38.25;83115.03;5127968;27;20277;-52
2023/08/14 17:46:06;;;;;;;7.22;6.53;;;;;;;-144.30;38.31;83115.03;5130157;27;20329;-52
2023/08/14 17:49:08;;;;;;;5.80;5.20;;;;;;;-144.30;38.47;83132.91;5131206;27;20198;-55
2023/08/14 17:55:02;;;;;;;10.07;5.53;;;;;;;-144.30;38.50;83168.66;5129422;27;20308;-57
2023/08/14 18:03:58;;;;;;;8.45;5.95;;;;;;;-144.30;34.36;83166.69;5128916;27;20699;-51
2023/08/14 18:06:35;;;;;;;9.05;5.70;;;;;;;-144.30;34.09;83142.84;5127453;27;20274;-56
2023/08/14 18:09:15;;;;;;;7.75;5.45;;;;;;;-144.30;34.11;83232.25;5130303;27;20192;-56
2023/08/14 18:11:43;;;;;;;6.18;5.38;;;;;;;-144.30;33.65;83176.63;5128174;27;20189;-51
2023/08/14 18:14:15;;;;;;;7.13;5.32;;;;;;;-144.30;33.40;83186.56;5130303;27;20217;-52
2023/08/14 18:16:53;;;;;;;5.90;5.32;;;;;;;-144.30;33.46;83220.31;5128435;27;20193;-52
2023/08/14 18:19:27;;;;;;;5.60;5.15;;;;;;;-144.30;33.43;83236.22;5127756;27;20266;-56
2023/08/14 18:22:04;;;;;;;5.53;5.03;;;;;;;-144.30;33.43;83224.28;5129702;27;20717;-56
2023/08/14 18:24:39;;;;;;;6.05;5.53;;;;;;;-144.30;33.14;83218.34;5129847;27;20188;-57
2023/08/14 18:27:08;;;;;;;6.88;5.57;;;;;;;-144.30;33.27;83222.31;5129716;27;20250;-51
2023/08/14 18:29:38;;;;;;;5.55;5.15;;;;;;;-144.30;33.47;83248.13;5129301;27;20222;-55
2023/08/14 18:32:14;;;;;;;8.45;5.00;;;;;;;-144.30;33.12;83224.28;5129932;27;20734;-51
2023/08/14 18:34:49;;;;;;;8.27;5.10;;;;;;;-144.30;33.28;83270.00;5127575;27;20685;-56
2023/08/14 18:37:18;;;;;;;5.38;4.88;;;;;;;-144.30;33.21;83256.09;5128629;27;20280;-56
2023/08/14 18:40:02;;;;;;;6.38;5.82;;;;;;;-144.30;33.16;83275.94;5129246;27;20197;-51
2023/08/14 18:42:34;;;;;;;5.85;5.45;;;;;;;-144.30;33.33;83266.03;5128787;27;20657;-56
2023/08/14 18:45:04;;;;;;;5.25;4.80;;;;;;;-144.30;33.14;83279.94;5128325;27;20246;-50
2023/08/14 18:47:37;;;;;;;6.55;5.95;;;;;;;-144.30;33.19;83289.84;5128055;27;20197;-55
2023/08/14 18:50:12;;;;;;;6.05;5.32;;;;;;;-144.30;33.12;83321.66;5127858;28;20205;-51
2023/08/14 18:53:07;;;;;;;5.82;5.43;;;;;;;-144.30;32.97;83273.97;5126310;28;20249;-56
2023/08/14 18:56:05;;;;;;;8.60;4.63;;;;;;;-144.30;32.97;83313.69;5129881;28;20198;-55
2023/08/14 18:59:10;;;;;;;5.82;5.30;;;;;;;-144.30;32.97;83250.13;5129893;28;20190;-57
2023/08/14 19:02:01;;;;;;;6.32;5.20;;;;;;;-144.30;32.85;83329.59;5130156;28;20601;-56
2023/08/14 19:04:52;;;;;;;7.93;5.18;;;;;;;-144.30;32.93;83355.41;5129515;28;20198;-52
2023/08/14 19:07:26;;;;;;;5.32;4.80;;;;;;;-144.30;33.32;83381.25;5125281;28;20669;-52
2023/08/14 19:10:10;;;;;;;9.10;4.85;;;;;;;-144.30;33.48;83373.31;5129748;28;20723;-52
2023/08/14 19:13:07;;;;;;;5.32;4.93;;;;;;;-144.30;33.45;83349.47;5130379;27;20583;-51
2023/08/14 19:15:59;;;;;;;8.13;5.72;;;;;;;-144.30;33.07;83317.66;5134044;27;20665;-50
2023/08/14 19:18:43;;;;;;;5.57;5.28;;;;;;;-144.30;32.98;83363.38;5132877;27;20673;-51
2023/08/14 19:21:20;;;;;;;5.38;4.88;;;;;;;-144.30;33.07;83369.34;5133892;27;20201;-55
2023/08/14 19:23:51;;;;;;;5.72;5.22;;;;;;;-144.30;33.48;83377.28;5133756;27;20197;-51
2023/08/14 19:26:28;;;;;;;5.63;5.13;;;;;;;-144.30;33.55;83369.34;5133183;27;20200;-51
2023/08/14 19:29:09;;;;;;;7.47;5.65;;;;;;;-144.30;33.41;83409.06;5133456;27;20198;-52
2023/08/14 19:31:44;;;;;;;6.45;5.68;;;;;;;-144.30;33.35;83409.06;5133803;27;20254;-50
2023/08/14 19:34:24;;;;;;;6.68;5.30;;;;;;;-144.30;33.32;83399.13;5132906;27;20672;-55
2023/08/14 19:37:03;;;;;;;6.32;5.90;;;;;;;-144.30;33.36;83411.06;5133431;27;20207;-55
2023/08/14 19:39:36;;;;;;;5.40;4.90;;;;;;;-144.30;33.31;83405.09;5133675;27;20681;-55
2023/08/14 19:42:21;;;;;;;7.20;5.70;;;;;;;-144.30;33.31;83422.97;5133992;27;20229;-55